Time;durP1;ratioP1;P1;durP2;ratioP2;P2;SDS_P1;SDS_P2;PMS_P1;PMS_P2;Temp;Humidity;BMP_temperature;BMP_pressure;BME280_temperature;BME280_humidity;BME280_pressure;Samples;Min_cycle;Max_cycle;Signal;HPM_P1;HPM_P2
2022/03/28 00:01:14;;;;;;;38.40;15.23;;;11.70;18.10;;;;;;5053536;28;20183;-70
2022/03/28 00:03:40;;;;;;;32.93;15.80;;;12.10;17.40;;;;;;5052557;28;20422;-71
2022/03/28 00:06:09;;;;;;;32.50;14.37;;;12.10;16.80;;;;;;5053155;28;20279;-71
2022/03/28 00:08:36;;;;;;;41.10;14.47;;;12.00;18.10;;;;;;5053168;28;20267;-70
2022/03/28 00:11:02;;;;;;;32.03;15.47;;;11.80;18.60;;;;;;5053105;28;20453;-70
2022/03/28 00:13:28;;;;;;;40.40;15.95;;;11.80;17.90;;;;;;5052947;28;20460;-71
2022/03/28 00:15:54;;;;;;;31.20;15.03;;;11.90;18.30;;;;;;5035391;28;20222;-71
2022/03/28 00:18:19;;;;;;;29.83;14.80;;;11.50;19.70;;;;;;5052127;28;20183;-71
2022/03/28 00:20:47;;;;;;;33.17;14.30;;;11.50;18.80;;;;;;5053060;28;20603;-71
2022/03/28 00:23:13;;;;;;;41.67;15.20;;;11.50;19.20;;;;;;5052506;28;20426;-71
2022/03/28 00:25:40;;;;;;;33.70;15.00;;;11.40;19.00;;;;;;5052947;28;20496;-71
2022/03/28 00:28:07;;;;;;;26.27;13.43;;;11.20;19.80;;;;;;5051766;28;20994;-71
2022/03/28 00:30:32;;;;;;;32.53;14.75;;;11.10;19.60;;;;;;5053024;28;20500;-71
2022/03/28 00:32:59;;;;;;;27.30;14.30;;;10.90;20.60;;;;;;5052734;28;20333;-71
2022/03/28 00:35:26;;;;;;;32.10;14.40;;;10.90;21.20;;;;;;5034935;28;20286;-71
2022/03/28 00:37:53;;;;;;;31.73;14.00;;;11.10;19.60;;;;;;5052332;28;20894;-71
2022/03/28 00:40:20;;;;;;;33.20;14.65;;;11.40;19.30;;;;;;5052294;28;20710;-71
2022/03/28 00:42:48;;;;;;;42.53;15.45;;;11.10;20.80;;;;;;5034742;28;20176;-71
2022/03/28 00:45:14;;;;;;;31.25;15.02;;;11.00;19.50;;;;;;5052436;28;20206;-71
2022/03/28 00:47:40;;;;;;;30.30;15.13;;;11.20;19.40;;;;;;5051916;28;20537;-69
2022/03/28 00:50:07;;;;;;;30.95;14.75;;;11.10;21.30;;;;;;5051802;28;20197;-71
2022/03/28 00:52:34;;;;;;;36.92;14.68;;;10.90;21.80;;;;;;5052452;28;20234;-71
2022/03/28 00:55:01;;;;;;;27.63;14.60;;;10.80;19.90;;;;;;5051738;28;20211;-71
2022/03/28 00:57:29;;;;;;;48.90;14.45;;;10.90;20.40;;;;;;5052136;28;20183;-71
2022/03/28 00:59:54;;;;;;;36.58;13.48;;;11.10;19.60;;;;;;5051741;28;20184;-70
2022/03/28 01:02:21;;;;;;;32.30;14.53;;;10.90;20.40;;;;;;5052335;28;20660;-70
2022/03/28 01:04:47;;;;;;;50.17;16.27;;;10.70;20.90;;;;;;5033975;28;20180;-71
2022/03/28 01:07:13;;;;;;;40.50;15.20;;;10.50;21.90;;;;;;5031844;28;20699;-70
2022/03/28 01:09:39;;;;;;;31.30;14.63;;;10.50;22.90;;;;;;5051445;28;20176;-71
2022/03/28 01:12:06;;;;;;;35.23;15.90;;;10.60;21.10;;;;;;5051676;28;20834;-71
2022/03/28 01:14:33;;;;;;;28.85;14.98;;;10.50;22.40;;;;;;5052050;28;20402;-71
2022/03/28 01:19:43;;;;;;;34.85;15.85;;;10.40;21.40;;;;;;5048661;28;20607;-72
2022/03/28 01:22:09;;;;;;;33.30;14.77;;;10.20;22.10;;;;;;5051650;28;20226;-71
2022/03/28 01:24:35;;;;;;;31.27;14.80;;;10.20;22.00;;;;;;5051617;28;20668;-71
2022/03/28 01:27:01;;;;;;;33.67;15.90;;;10.00;23.30;;;;;;5051688;28;20573;-71
2022/03/28 01:29:27;;;;;;;35.58;16.23;;;10.00;22.80;;;;;;5052107;28;20180;-70
2022/03/28 01:31:53;;;;;;;27.42;14.90;;;10.30;22.20;;;;;;5051054;28;20176;-70
2022/03/28 01:34:20;;;;;;;40.73;16.80;;;10.20;22.80;;;;;;5033915;28;20316;-71
2022/03/28 01:36:47;;;;;;;35.78;15.77;;;10.00;22.60;;;;;;5051539;28;20226;-71
2022/03/28 01:39:17;;;;;;;37.95;15.93;;;10.30;21.90;;;;;;5033861;28;20183;-71
2022/03/28 01:41:43;;;;;;;32.00;16.45;;;10.00;22.90;;;;;;5051460;28;20644;-71
2022/03/28 01:44:09;;;;;;;34.90;16.35;;;9.70;24.40;;;;;;5050882;28;20666;-71
2022/03/28 01:46:45;;;;;;;34.27;16.07;;;9.70;23.90;;;;;;5050731;28;20243;-71
2022/03/28 01:49:17;;;;;;;31.58;15.50;;;9.90;23.90;;;;;;5051834;28;20174;-72
2022/03/28 01:51:43;;;;;;;34.10;15.82;;;9.80;25.30;;;;;;5051257;28;20174;-71
2022/03/28 01:54:09;;;;;;;40.72;16.50;;;9.80;23.70;;;;;;5051018;28;20183;-71
2022/03/28 01:56:37;;;;;;;45.28;16.83;;;9.90;23.30;;;;;;5050779;28;20677;-71
2022/03/28 01:59:04;;;;;;;30.08;15.35;;;10.20;22.70;;;;;;5031542;28;20199;-71
2022/03/28 02:01:31;;;;;;;35.72;15.70;;;9.80;23.70;;;;;;5031598;28;20212;-70
2022/03/28 02:03:57;;;;;;;39.17;16.30;;;9.60;25.30;;;;;;5028159;28;20182;-70
2022/03/28 02:06:23;;;;;;;30.50;15.60;;;9.80;23.60;;;;;;5050958;28;20246;-71
2022/03/28 02:08:48;;;;;;;38.77;16.30;;;9.80;23.70;;;;;;5055130;28;20406;-71
2022/03/28 02:11:14;;;;;;;33.80;16.40;;;9.90;24.40;;;;;;5055590;28;20490;-70
2022/03/28 02:13:40;;;;;;;35.40;16.07;;;9.80;24.50;;;;;;5055195;28;20576;-71
2022/03/28 02:16:06;;;;;;;31.33;14.50;;;9.70;25.50;;;;;;5054350;28;20200;-71
2022/03/28 02:18:32;;;;;;;35.35;16.90;;;9.90;23.80;;;;;;5054858;28;20187;-70
2022/03/28 02:20:58;;;;;;;33.93;16.00;;;9.80;25.00;;;;;;5055480;28;20258;-70
2022/03/28 02:23:24;;;;;;;31.80;15.00;;;9.90;23.50;;;;;;5055122;28;20899;-71
2022/03/28 02:25:50;;;;;;;33.60;15.45;;;10.10;22.80;;;;;;5036404;28;20229;-70
2022/03/28 02:28:15;;;;;;;32.27;15.90;;;10.00;22.30;;;;;;5037061;28;20184;-70
2022/03/28 02:30:42;;;;;;;31.17;15.63;;;10.10;22.00;;;;;;5036830;28;20188;-71
2022/03/28 02:33:08;;;;;;;35.90;16.25;;;10.20;21.90;;;;;;5054838;28;20653;-71
2022/03/28 02:35:35;;;;;;;34.20;16.35;;;10.20;21.60;;;;;;5055095;28;20204;-71
2022/03/28 02:38:04;;;;;;;37.67;15.55;;;10.00;22.50;;;;;;5054405;28;20181;-71
2022/03/28 02:40:31;;;;;;;34.83;17.15;;;10.10;22.30;;;;;;5037446;28;20677;-71
2022/03/28 02:42:58;;;;;;;30.70;15.80;;;10.00;22.90;;;;;;5055035;28;20180;-72
2022/03/28 02:45:25;;;;;;;67.35;16.65;;;9.60;25.00;;;;;;5053906;28;20211;-71
2022/03/28 02:47:51;;;;;;;37.92;16.52;;;9.40;26.00;;;;;;5054088;28;20658;-71
2022/03/28 02:50:16;;;;;;;37.33;15.98;;;9.30;27.00;;;;;;5054949;28;20166;-71
2022/03/28 02:52:42;;;;;;;32.67;15.03;;;9.40;26.00;;;;;;5107964;22;20606;-71
2022/03/28 02:55:08;;;;;;;29.27;15.07;;;9.50;24.70;;;;;;5071903;28;20271;-72
2022/03/28 02:57:35;;;;;;;42.22;16.48;;;9.50;24.80;;;;;;5074061;28;20172;-71
2022/03/28 03:00:03;;;;;;;42.33;16.65;;;9.30;25.60;;;;;;5073405;28;20592;-71
2022/03/28 03:02:29;;;;;;;35.63;17.85;;;9.30;24.70;;;;;;5074113;28;20191;-71
2022/03/28 03:04:55;;;;;;;33.77;16.10;;;9.10;25.40;;;;;;5073908;28;20178;-71
2022/03/28 03:07:20;;;;;;;42.87;16.13;;;8.90;25.20;;;;;;5073527;28;20569;-71
2022/03/28 03:09:48;;;;;;;38.57;16.43;;;9.00;25.10;;;;;;5074359;28;20168;-71
2022/03/28 03:12:13;;;;;;;38.10;17.00;;;9.20;25.60;;;;;;5073893;28;20214;-71
2022/03/28 03:14:39;;;;;;;38.87;16.20;;;9.10;26.00;;;;;;5073994;28;20626;-71
2022/03/28 03:17:05;;;;;;;29.40;15.10;;;9.20;25.10;;;;;;5072848;28;20180;-71
2022/03/28 03:19:30;;;;;;;35.13;16.20;;;8.90;25.90;;;;;;5073505;28;20641;-71
2022/03/28 03:21:56;;;;;;;32.63;15.37;;;8.80;26.20;;;;;;5073537;28;20191;-72
2022/03/28 03:24:22;;;;;;;34.97;16.00;;;9.00;25.60;;;;;;5073300;28;20679;-71
2022/03/28 03:26:47;;;;;;;27.90;15.83;;;8.90;26.40;;;;;;5072851;28;20332;-71
2022/03/28 03:29:13;;;;;;;33.87;15.80;;;8.80;26.20;;;;;;5073861;28;20169;-71
2022/03/28 03:31:41;;;;;;;37.00;15.00;;;9.10;25.30;;;;;;5073607;28;20196;-72
2022/03/28 03:34:07;;;;;;;36.15;16.30;;;9.00;25.50;;;;;;5073567;28;20169;-71
2022/03/28 03:36:33;;;;;;;31.60;15.53;;;9.00;25.90;;;;;;5073027;28;20180;-73
2022/03/28 03:38:59;;;;;;;36.22;16.52;;;8.80;25.70;;;;;;5073317;28;20210;-71
2022/03/28 03:41:25;;;;;;;33.40;15.93;;;8.70;27.30;;;;;;5073665;28;20530;-72
2022/03/28 03:43:51;;;;;;;34.00;15.57;;;9.10;25.30;;;;;;5072429;28;20187;-71
2022/03/28 03:46:16;;;;;;;35.53;16.57;;;9.10;25.60;;;;;;5073078;28;20205;-71
2022/03/28 03:48:42;;;;;;;32.57;16.23;;;9.00;25.50;;;;;;5073544;28;20171;-71
2022/03/28 03:51:08;;;;;;;35.38;16.10;;;9.10;26.60;;;;;;5072637;28;20206;-71
2022/03/28 03:53:34;;;;;;;36.07;15.63;;;9.00;25.70;;;;;;5072750;28;20187;-71
2022/03/28 03:56:00;;;;;;;39.30;16.87;;;8.70;26.60;;;;;;5073022;28;20200;-71
2022/03/28 03:58:26;;;;;;;34.70;17.40;;;8.80;26.80;;;;;;5073165;28;20592;-72
2022/03/28 04:00:52;;;;;;;29.65;15.98;;;8.90;26.00;;;;;;5073339;28;20456;-72
2022/03/28 04:03:17;;;;;;;39.97;17.20;;;8.80;26.40;;;;;;5071336;28;20188;-72
2022/03/28 04:05:43;;;;;;;37.17;18.73;;;8.60;26.70;;;;;;5072857;28;20211;-71
2022/03/28 04:08:09;;;;;;;35.60;16.57;;;8.90;25.90;;;;;;5074687;28;20176;-71
2022/03/28 04:10:35;;;;;;;38.97;18.60;;;8.70;27.50;;;;;;5075088;28;20430;-71
2022/03/28 04:13:02;;;;;;;33.47;17.17;;;8.90;26.10;;;;;;5076453;28;20200;-70
2022/03/28 04:15:28;;;;;;;44.08;17.88;;;8.80;26.60;;;;;;5074947;28;20190;-71
2022/03/28 04:17:53;;;;;;;41.27;17.90;;;8.80;25.90;;;;;;5072761;28;20179;-71
2022/03/28 04:20:19;;;;;;;47.23;18.93;;;8.90;25.50;;;;;;5072916;28;20199;-71
2022/03/28 04:22:48;;;;;;;32.00;16.00;;;9.10;25.20;;;;;;5072698;28;20206;-71
2022/03/28 04:25:15;;;;;;;42.17;17.00;;;9.00;25.40;;;;;;5072214;28;20321;-71
2022/03/28 04:27:41;;;;;;;33.05;17.20;;;9.00;25.50;;;;;;5072524;28;20175;-71
2022/03/28 04:30:09;;;;;;;38.85;17.70;;;8.70;26.90;;;;;;5072113;28;20174;-71
2022/03/28 04:32:35;;;;;;;41.97;17.75;;;8.60;26.80;;;;;;5072632;28;20202;-71
2022/03/28 04:35:01;;;;;;;42.17;16.75;;;8.50;27.00;;;;;;5072399;28;20264;-71
2022/03/28 04:37:33;;;;;;;42.80;17.45;;;11.60;28.40;;;;;;5071426;28;20187;-70
2022/03/28 04:39:59;;;;;;;42.75;17.92;;;9.00;26.70;;;;;;5072539;28;20628;-69
2022/03/28 04:42:24;;;;;;;30.87;16.40;;;8.90;25.40;;;;;;5072263;28;20241;-70
2022/03/28 04:44:50;;;;;;;36.33;17.17;;;8.80;25.80;;;;;;5072602;28;20176;-70
2022/03/28 04:47:16;;;;;;;31.10;16.40;;;8.70;26.80;;;;;;5071275;28;20203;-71
2022/03/28 04:49:41;;;;;;;35.67;16.90;;;8.70;26.40;;;;;;5071965;28;20541;-71
2022/03/28 04:52:07;;;;;;;36.57;16.10;;;8.80;26.20;;;;;;5071577;28;20207;-70
2022/03/28 04:54:33;;;;;;;33.33;16.73;;;8.60;26.00;;;;;;5072369;28;20178;-71
2022/03/28 04:56:59;;;;;;;39.30;16.80;;;8.30;27.30;;;;;;5071498;28;20219;-71
2022/03/28 04:59:24;;;;;;;34.53;15.33;;;8.10;27.80;;;;;;5071770;28;20421;-70
2022/03/28 05:01:50;;;;;;;41.50;17.07;;;8.00;27.30;;;;;;5071877;28;20270;-70
2022/03/28 05:04:16;;;;;;;35.87;18.60;;;8.00;28.70;;;;;;5071791;28;20184;-71
2022/03/28 05:06:41;;;;;;;33.33;16.63;;;8.20;27.00;;;;;;5071619;28;20579;-70
2022/03/28 05:09:07;;;;;;;40.47;17.03;;;8.30;26.70;;;;;;5071079;28;20186;-71
2022/03/28 05:11:33;;;;;;;34.83;16.90;;;8.20;27.10;;;;;;5071912;28;20209;-70
2022/03/28 05:14:00;;;;;;;46.35;17.70;;;7.90;27.90;;;;;;5071672;28;20179;-70
2022/03/28 05:16:26;;;;;;;41.15;17.02;;;7.80;28.10;;;;;;5071438;28;20180;-71
2022/03/28 05:18:52;;;;;;;42.73;16.67;;;7.90;27.70;;;;;;5071073;28;20599;-71
2022/03/28 05:21:17;;;;;;;42.83;17.97;;;8.30;26.40;;;;;;5071135;28;20288;-70
2022/03/28 05:23:44;;;;;;;50.67;18.90;;;8.40;26.70;;;;;;5071843;28;20254;-70
2022/03/28 05:26:09;;;;;;;50.22;19.63;;;8.30;26.50;;;;;;5071338;28;20202;-70
2022/03/28 05:28:35;;;;;;;48.20;18.07;;;8.60;26.20;;;;;;5071277;28;20171;-71
2022/03/28 05:31:01;;;;;;;51.03;20.10;;;8.50;26.40;;;;;;5071288;28;20175;-71
2022/03/28 05:33:26;;;;;;;48.10;18.57;;;8.60;26.20;;;;;;5071618;28;20179;-71
2022/03/28 05:35:52;;;;;;;51.80;21.67;;;8.70;25.50;;;;;;5071801;28;20176;-70
2022/03/28 05:38:18;;;;;;;59.05;20.83;;;8.90;25.80;;;;;;5071054;28;20175;-70
2022/03/28 05:40:44;;;;;;;45.88;20.00;;;8.60;27.60;;;;;;5070855;28;20191;-70
2022/03/28 05:43:10;;;;;;;60.10;22.67;;;8.40;27.00;;;;;;5070647;28;20203;-70
2022/03/28 05:45:36;;;;;;;51.63;20.57;;;8.30;27.10;;;;;;5071487;28;20229;-70
2022/03/28 05:48:03;;;;;;;38.80;18.50;;;8.20;26.80;;;;;;5070920;28;20172;-71
2022/03/28 05:50:29;;;;;;;44.60;21.25;;;8.30;27.00;;;;;;5070651;28;20272;-71
2022/03/28 05:52:54;;;;;;;47.00;22.17;;;8.40;27.10;;;;;;5070595;28;20686;-71
2022/03/28 05:55:21;;;;;;;46.17;20.03;;;8.40;28.80;;;;;;5070123;28;20176;-70
2022/03/28 05:57:46;;;;;;;46.40;21.23;;;8.70;27.60;;;;;;5070806;28;20438;-70
2022/03/28 06:00:14;;;;;;;54.40;21.80;;;8.70;28.20;;;;;;5071436;28;20206;-70
2022/03/28 06:02:44;;;;;;;51.72;19.50;;;8.70;27.40;;;;;;5070643;28;20203;-70
2022/03/28 06:05:12;;;;;;;46.17;20.70;;;8.80;27.70;;;;;;5071191;28;20644;-71
2022/03/28 06:07:38;;;;;;;53.13;20.67;;;9.10;26.40;;;;;;5069569;28;20172;-71
2022/03/28 06:10:04;;;;;;;53.42;21.17;;;9.10;26.70;;;;;;5071004;28;20180;-71
2022/03/28 06:12:30;;;;;;;39.17;18.30;;;9.10;27.60;;;;;;5070860;28;20245;-71
2022/03/28 06:14:55;;;;;;;46.80;19.20;;;9.10;26.60;;;;;;5070951;28;20179;-71
2022/03/28 06:17:26;;;;;;;43.60;20.30;;;9.20;26.70;;;;;;5069444;28;20239;-71
2022/03/28 06:19:52;;;;;;;38.25;18.80;;;9.40;26.60;;;;;;5070762;28;20175;-70
2022/03/28 06:22:18;;;;;;;43.63;20.08;;;9.50;26.10;;;;;;5070222;28;20245;-71
2022/03/28 06:24:44;;;;;;;49.50;17.77;;;9.50;25.90;;;;;;5071221;28;20181;-71
2022/03/28 06:27:10;;;;;;;49.20;19.50;;;9.50;25.80;;;;;;5070482;28;20207;-71
2022/03/28 06:29:36;;;;;;;41.22;17.80;;;9.50;25.50;;;;;;5070633;28;20570;-70
2022/03/28 06:32:02;;;;;;;58.27;18.43;;;9.50;25.60;;;;;;5070888;28;20245;-71
2022/03/28 06:34:28;;;;;;;44.77;19.50;;;9.60;26.50;;;;;;5071062;28;20173;-71
2022/03/28 06:36:54;;;;;;;47.07;18.80;;;9.50;25.20;;;;;;5070418;28;20422;-72
2022/03/28 06:39:19;;;;;;;55.07;19.70;;;9.40;26.20;;;;;;5070999;28;20175;-77
2022/03/28 06:41:45;;;;;;;52.00;20.30;;;9.50;25.60;;;;;;5070844;28;20444;-77
2022/03/28 06:44:14;;;;;;;64.23;20.80;;;9.50;25.90;;;;;;5070656;28;20183;-72
2022/03/28 06:46:40;;;;;;;59.92;21.02;;;9.50;26.50;;;;;;5069289;28;20206;-71
2022/03/28 06:49:06;;;;;;;56.45;20.42;;;9.70;25.00;;;;;;5066788;28;20183;-71
2022/03/28 06:51:33;;;;;;;76.88;21.25;;;9.70;25.50;;;;;;5069711;28;20213;-71
2022/03/28 06:54:02;;;;;;;49.30;21.95;;;9.50;25.80;;;;;;5072511;28;20648;-71
2022/03/28 06:56:28;;;;;;;42.22;21.05;;;9.50;25.80;;;;;;5072427;28;20174;-71
2022/03/28 06:58:54;;;;;;;40.27;21.10;;;9.60;25.50;;;;;;5072352;28;20183;-72
2022/03/28 07:01:19;;;;;;;54.60;21.20;;;9.60;25.60;;;;;;5072868;28;20682;-72
2022/03/28 07:03:46;;;;;;;52.03;20.93;;;9.40;26.20;;;;;;5067480;28;20440;-71
2022/03/28 07:06:12;;;;;;;49.43;22.53;;;9.30;26.40;;;;;;5070550;28;20499;-72
2022/03/28 07:08:37;;;;;;;55.87;21.53;;;9.40;26.30;;;;;;5069144;28;20430;-72
2022/03/28 07:11:03;;;;;;;68.17;23.00;;;9.70;25.80;;;;;;5072687;28;20261;-72
2022/03/28 07:13:30;;;;;;;55.30;21.03;;;10.00;24.10;;;;;;5074209;28;20171;-72
2022/03/28 07:15:55;;;;;;;56.40;22.20;;;10.10;24.40;;;;;;5074032;28;21071;-73
2022/03/28 07:18:22;;;;;;;46.13;20.63;;;10.30;24.00;;;;;;5072954;28;20515;-73
2022/03/28 07:20:48;;;;;;;48.03;21.37;;;10.80;23.80;;;;;;5073687;28;20168;-73
2022/03/28 07:23:14;;;;;;;51.70;19.80;;;10.70;23.30;;;;;;5073056;28;20483;-73
2022/03/28 07:25:40;;;;;;;54.40;22.33;;;10.70;23.50;;;;;;5074031;28;20448;-73
2022/03/28 07:28:10;;;;;;;64.67;23.27;;;10.80;23.10;;;;;;5072243;28;20848;-73
2022/03/28 07:30:36;;;;;;;69.83;23.17;;;10.80;23.60;;;;;;5073739;28;20177;-74
2022/03/28 07:33:03;;;;;;;57.50;22.83;;;10.90;23.30;;;;;;5072631;28;20469;-74
2022/03/28 07:35:30;;;;;;;58.50;22.40;;;10.80;23.30;;;;;;5073625;28;20516;-74
2022/03/28 07:37:55;;;;;;;55.73;21.80;;;11.00;23.00;;;;;;5072749;28;20425;-73
2022/03/28 07:40:21;;;;;;;57.37;22.00;;;10.90;23.30;;;;;;5073574;28;20480;-73
2022/03/28 07:42:47;;;;;;;50.50;22.10;;;10.50;24.00;;;;;;5072535;28;20766;-72
2022/03/28 07:45:14;;;;;;;50.70;22.20;;;10.30;24.10;;;;;;5072817;28;20516;-73
2022/03/28 07:47:41;;;;;;;56.57;21.57;;;10.20;24.40;;;;;;5072840;28;20257;-73
2022/03/28 07:50:07;;;;;;;42.87;20.70;;;10.40;23.70;;;;;;5072835;28;20423;-73
2022/03/28 07:52:34;;;;;;;43.70;21.23;;;10.90;23.30;;;;;;5072098;28;20806;-72
2022/03/28 07:55:00;;;;;;;47.77;21.10;;;11.20;22.80;;;;;;5072042;28;20419;-73
2022/03/28 07:57:26;;;;;;;45.60;20.03;;;10.90;23.10;;;;;;5072867;28;20404;-73
2022/03/28 07:59:52;;;;;;;45.00;20.43;;;11.70;22.60;;;;;;5072689;28;20428;-73
2022/03/28 08:02:18;;;;;;;38.40;20.13;;;11.70;21.90;;;;;;5072441;28;20446;-71
2022/03/28 08:04:44;;;;;;;48.20;21.60;;;12.30;21.30;;;;;;5072775;28;20547;-69
2022/03/28 08:07:11;;;;;;;56.60;22.30;;;11.90;21.50;;;;;;5072073;28;20221;-73
2022/03/28 08:09:38;;;;;;;57.10;21.70;;;11.80;22.40;;;;;;5072488;28;20505;-73
2022/03/28 08:12:05;;;;;;;44.13;19.40;;;12.10;21.80;;;;;;5071501;28;20449;-71
2022/03/28 08:14:31;;;;;;;43.73;21.00;;;12.80;21.60;;;;;;5072310;28;20434;-72
2022/03/28 08:16:58;;;;;;;43.30;21.10;;;13.10;21.00;;;;;;5066591;28;20992;-72
2022/03/28 08:19:24;;;;;;;46.00;20.80;;;13.40;21.00;;;;;;5071466;28;20424;-71
2022/03/28 08:21:50;;;;;;;57.87;23.13;;;13.00;21.00;;;;;;5071380;28;20791;-71
2022/03/28 08:24:15;;;;;;;38.30;20.23;;;13.00;21.00;;;;;;5071820;28;20611;-71
2022/03/28 08:26:41;;;;;;;51.30;20.00;;;13.70;20.80;;;;;;5072322;28;20587;-71
2022/03/28 08:29:07;;;;;;;55.47;21.40;;;13.40;21.20;;;;;;5072191;28;20164;-71
2022/03/28 08:31:33;;;;;;;44.37;21.50;;;13.50;20.80;;;;;;5072143;28;20451;-72
2022/03/28 08:33:59;;;;;;;41.27;20.90;;;13.80;20.70;;;;;;5071868;28;20561;-72
2022/03/28 08:36:25;;;;;;;61.10;22.23;;;14.40;19.80;;;;;;5071912;28;20520;-72
2022/03/28 08:38:51;;;;;;;55.67;21.73;;;14.80;18.70;;;;;;5071974;28;20422;-73
2022/03/28 08:41:18;;;;;;;46.10;20.50;;;14.90;18.70;;;;;;5072091;28;20218;-73
2022/03/28 08:43:45;;;;;;;45.43;22.20;;;15.10;18.40;;;;;;5072020;28;20830;-72
2022/03/28 08:46:15;;;;;;;43.63;22.37;;;13.90;20.10;;;;;;5072004;28;20453;-74
2022/03/28 08:48:41;;;;;;;48.50;21.73;;;13.90;20.40;;;;;;5070977;28;20777;-74
2022/03/28 08:51:13;;;;;;;47.80;22.67;;;14.00;20.20;;;;;;5071585;28;20420;-74
2022/03/28 08:53:39;;;;;;;44.27;20.83;;;14.00;20.10;;;;;;5071717;28;20829;-74
2022/03/28 08:56:07;;;;;;;47.00;20.90;;;14.50;19.50;;;;;;5071905;28;20971;-74
2022/03/28 08:58:34;;;;;;;36.80;19.67;;;12.00;18.10;;;;;;5070986;28;20871;-74
2022/03/28 09:01:01;;;;;;;40.23;21.43;;;14.60;19.60;;;;;;5070648;28;20919;-74
2022/03/28 09:03:41;;;;;;;50.77;23.13;;;14.90;19.00;;;;;;5070566;28;20434;-74
2022/03/28 09:06:32;;;;;;;50.23;22.67;;;14.70;19.30;;;;;;5071427;28;20459;-74
2022/03/28 09:09:16;;;;;;;52.27;21.90;;;15.70;18.80;;;;;;5059167;28;20479;-74
2022/03/28 09:11:42;;;;;;;50.13;20.90;;;16.30;17.70;;;;;;5072811;28;20445;-75
2022/03/28 09:14:11;;;;;;;43.53;23.13;;;16.80;16.40;;;;;;5072462;28;20421;-75
2022/03/28 09:16:37;;;;;;;42.10;20.97;;;16.30;16.70;;;;;;5071436;28;20461;-75
2022/03/28 09:19:08;;;;;;;51.17;22.20;;;16.10;17.00;;;;;;5072078;28;20582;-75
2022/03/28 09:21:34;;;;;;;44.80;21.67;;;16.20;17.80;;;;;;5071534;28;20199;-75
2022/03/28 09:24:04;;;;;;;44.33;21.77;;;16.30;17.10;;;;;;5072294;28;20482;-75
2022/03/28 09:26:30;;;;;;;36.47;20.73;;;16.90;16.50;;;;;;5073739;28;20458;-75
2022/03/28 09:29:01;;;;;;;44.70;21.33;;;17.10;16.30;;;;;;5073136;28;20459;-75
2022/03/28 09:31:37;;;;;;;51.93;22.70;;;16.40;16.80;;;;;;5073371;28;20865;-75
2022/03/28 09:34:07;;;;;;;44.50;20.77;;;16.70;16.80;;;;;;5073910;28;20928;-75
2022/03/28 09:36:40;;;;;;;37.90;20.60;;;17.20;16.20;;;;;;5073958;28;20791;-75
2022/03/28 09:39:27;;;;;;;41.90;21.40;;;17.90;15.30;;;;;;5073849;28;20487;-75
2022/03/28 09:42:04;;;;;;;52.40;21.73;;;18.00;15.60;;;;;;5070687;28;21026;-75
2022/03/28 09:44:39;;;;;;;47.20;23.00;;;18.10;15.30;;;;;;5071253;28;20473;-75
2022/03/28 09:47:12;;;;;;;39.67;20.53;;;18.30;15.80;;;;;;5070765;28;20496;-75
2022/03/28 09:49:41;;;;;;;42.63;20.80;;;18.10;15.70;;;;;;5071202;28;20418;-75
2022/03/28 09:52:10;;;;;;;44.27;23.33;;;18.70;15.20;;;;;;5070563;28;20540;-75
2022/03/28 09:54:45;;;;;;;40.53;21.10;;;19.40;14.50;;;;;;5071317;28;20679;-75
2022/03/28 09:57:13;;;;;;;48.87;23.17;;;19.10;14.50;;;;;;5070767;28;20508;-75
2022/03/28 09:59:40;;;;;;;47.97;21.40;;;18.80;15.20;;;;;;5071206;28;20417;-75
2022/03/28 10:02:16;;;;;;;48.80;21.50;;;19.40;14.80;;;;;;5070806;28;20431;-75
2022/03/28 10:04:45;;;;;;;49.47;22.50;;;18.90;15.30;;;;;;5071253;28;20445;-75
2022/03/28 10:07:11;;;;;;;39.53;22.67;;;19.80;14.30;;;;;;5070317;28;20496;-75
2022/03/28 10:09:39;;;;;;;47.10;20.53;;;20.10;14.10;;;;;;5071259;28;20411;-75
2022/03/28 10:12:06;;;;;;;42.90;21.43;;;19.70;14.20;;;;;;5070706;28;20186;-75
2022/03/28 10:14:33;;;;;;;44.33;23.33;;;19.10;14.10;;;;;;5071068;28;20430;-75
2022/03/28 10:17:03;;;;;;;42.83;23.07;;;19.10;14.80;;;;;;5070754;28;20464;-75
2022/03/28 10:19:33;;;;;;;52.60;23.87;;;19.10;14.80;;;;;;5070198;28;20474;-75
2022/03/28 10:22:01;;;;;;;36.87;21.43;;;19.10;13.80;;;;;;5070644;28;20430;-75
2022/03/28 10:24:30;;;;;;;41.03;20.30;;;19.10;13.90;;;;;;5068655;28;20474;-75
2022/03/28 10:26:58;;;;;;;43.70;21.67;;;19.10;13.60;;;;;;5069089;28;21130;-75
2022/03/28 10:29:37;;;;;;;40.30;21.30;;;19.40;13.60;;;;;;5073311;28;20429;-75
2022/03/28 10:32:08;;;;;;;50.73;21.37;;;20.10;12.30;;;;;;5053691;28;20888;-75
2022/03/28 10:35:04;;;;;;;37.33;19.97;;;19.60;12.60;;;;;;5062417;28;20408;-75
2022/03/28 10:37:37;;;;;;;36.40;18.20;;;20.40;12.50;;;;;;5074508;28;20436;-75
2022/03/28 10:40:33;;;;;;;33.77;18.30;;;20.20;10.60;;;;;;5073093;28;20455;-74
2022/03/28 10:43:11;;;;;;;36.93;19.37;;;20.00;7.70;;;;;;5073075;28;20491;-75
2022/03/28 10:45:49;;;;;;;41.83;19.70;;;19.40;8.30;;;;;;5072893;28;20460;-75
2022/03/28 10:48:16;;;;;;;33.23;17.83;;;19.90;6.90;;;;;;5081368;28;20557;-76
2022/03/28 10:50:51;;;;;;;32.30;17.40;;;20.00;7.30;;;;;;5077416;28;20493;-75
2022/03/28 10:53:33;;;;;;;36.23;18.87;;;20.10;8.40;;;;;;5083073;28;20438;-74
2022/03/28 10:56:05;;;;;;;29.07;17.83;;;20.00;8.00;;;;;;5078836;28;20595;-77
2022/03/28 10:58:36;;;;;;;36.13;16.87;;;20.20;8.80;;;;;;5075555;28;20412;-74
2022/03/28 11:01:13;;;;;;;32.37;17.40;;;20.60;7.80;;;;;;5074442;28;20428;-74
2022/03/28 11:03:47;;;;;;;37.60;18.40;;;21.00;7.20;;;;;;5073521;28;20570;-76
2022/03/28 11:06:45;;;;;;;32.50;16.53;;;21.40;7.00;;;;;;5072818;28;20463;-75
2022/03/28 11:09:11;;;;;;;33.13;17.20;;;22.30;6.60;;;;;;5038964;28;20941;-75
2022/03/28 11:11:56;;;;;;;38.33;16.90;;;22.80;5.60;;;;;;5067810;28;20546;-75
2022/03/28 11:14:58;;;;;;;34.10;18.17;;;23.40;5.40;;;;;;5073711;28;20409;-75
2022/03/28 11:17:29;;;;;;;25.03;16.63;;;23.30;6.10;;;;;;5073411;28;21178;-75
2022/03/28 11:19:56;;;;;;;30.90;17.87;;;24.60;4.60;;;;;;5073959;28;20417;-75
2022/03/28 11:22:41;;;;;;;30.40;17.50;;;24.50;4.30;;;;;;5073774;28;20445;-74
2022/03/28 11:25:26;;;;;;;34.33;17.33;;;25.10;4.10;;;;;;5073787;28;20445;-75
2022/03/28 11:28:14;;;;;;;30.13;17.37;;;24.40;4.90;;;;;;5073403;28;20420;-75
2022/03/28 11:30:45;;;;;;;22.80;15.67;;;24.90;4.50;;;;;;5073023;28;20434;-74
2022/03/28 11:33:17;;;;;;;25.07;15.23;;;26.40;3.20;;;;;;5072635;28;20516;-73
2022/03/28 11:36:04;;;;;;;22.63;15.87;;;28.00;3.80;;;;;;5073365;28;20496;-73
2022/03/28 11:38:40;;;;;;;32.13;15.83;;;27.90;1.00;;;;;;5073140;28;20394;-73
2022/03/28 11:41:08;;;;;;;24.30;16.10;;;28.60;1.20;;;;;;5071918;28;20420;-73
2022/03/28 11:43:35;;;;;;;32.37;16.93;;;28.40;1.00;;;;;;5073304;28;20421;-73
2022/03/28 11:46:03;;;;;;;24.87;16.20;;;28.50;1.00;;;;;;5072241;28;20509;-73
2022/03/28 11:48:29;;;;;;;25.07;16.13;;;28.00;1.00;;;;;;5073379;28;20905;-75
2022/03/28 11:50:55;;;;;;;23.93;16.00;;;26.30;2.70;;;;;;5073665;28;20452;-74
2022/03/28 11:53:22;;;;;;;20.90;14.50;;;26.60;3.20;;;;;;5073089;28;20452;-72
2022/03/28 11:55:53;;;;;;;27.53;14.40;;;28.20;1.00;;;;;;5072506;28;20175;-71
2022/03/28 11:58:32;;;;;;;39.77;14.77;;;27.80;1.00;;;;;;5072685;28;20413;-71
2022/03/28 12:01:10;;;;;;;24.60;14.40;;;26.30;1.00;;;;;;5072660;28;20779;-71
2022/03/28 12:03:37;;;;;;;30.70;13.50;;;27.30;1.00;;;;;;5072502;28;20490;-73
2022/03/28 12:06:03;;;;;;;20.17;13.00;;;26.40;1.00;;;;;;5072852;28;20460;-73
2022/03/28 12:08:29;;;;;;;21.50;13.87;;;27.00;1.00;;;;;;5066713;28;20476;-73
2022/03/28 12:10:55;;;;;;;20.53;13.00;;;28.20;1.00;;;;;;5072653;28;20500;-73
2022/03/28 12:13:23;;;;;;;22.53;13.20;;;28.10;1.00;;;;;;5072370;28;20508;-73
2022/03/28 12:15:52;;;;;;;20.43;14.00;;;28.60;1.00;;;;;;5072892;28;20681;-75
2022/03/28 12:18:20;;;;;;;22.67;14.07;;;27.50;1.00;;;;;;5072270;28;20474;-76
2022/03/28 12:20:49;;;;;;;26.33;13.30;;;27.80;1.00;;;;;;5072931;28;20418;-75
2022/03/28 12:23:16;;;;;;;23.37;15.03;;;28.00;1.00;;;;;;5072359;28;20483;-76
2022/03/28 12:25:48;;;;;;;20.87;13.30;;;27.30;1.00;;;;;;5071492;28;20460;-75
2022/03/28 12:28:38;;;;;;;21.53;14.13;;;27.60;1.00;;;;;;5072218;28;20941;-74
2022/03/28 12:31:07;;;;;;;19.63;12.90;;;27.70;1.00;;;;;;5072768;28;20492;-73
2022/03/28 12:33:38;;;;;;;21.70;13.00;;;27.90;1.00;;;;;;5072448;28;20545;-73
2022/03/28 12:36:14;;;;;;;25.20;13.30;;;28.60;1.00;;;;;;5072000;28;20512;-73
2022/03/28 12:38:42;;;;;;;25.00;14.33;;;28.90;1.00;;;;;;5070776;28;20797;-73
2022/03/28 12:41:11;;;;;;;32.03;15.30;;;28.70;1.00;;;;;;5071368;28;20425;-72